Time;durP1;ratioP1;P1;durP2;ratioP2;P2;SDS_P1;SDS_P2;PMS_P1;PMS_P2;Temp;Humidity;BMP_temperature;BMP_pressure;BME280_temperature;BME280_humidity;BME280_pressure;Samples;Min_cycle;Max_cycle;Signal;HPM_P1;HPM_P2
2023/05/24 00:00:11;;;;;;;14.55;4.60;;;;;;;;;;4436893;32;20411;-73
2023/05/24 00:02:36;;;;;;;19.33;5.72;;;;;;;;;;4437615;32;20085;-73
2023/05/24 00:05:02;;;;;;;22.25;5.00;;;;;;;;;;4435644;32;20048;-73
2023/05/24 00:07:27;;;;;;;21.80;5.85;;;;;;;;;;4436992;32;20057;-73
2023/05/24 00:09:52;;;;;;;;;;;;;;;;;;4436386;32;20034;-72
2023/05/24 00:12:17;;;;;;;22.70;5.22;;;;;;;;;;4437008;32;19972;-73
2023/05/24 00:14:42;;;;;;;25.27;4.40;;;;;;;;;;4437322;32;20037;-74
2023/05/24 00:17:07;;;;;;;23.73;4.25;;;;;;;;;;4437580;32;20018;-72
2023/05/24 00:19:33;;;;;;;;;;;;;;;;;;4437433;32;20273;-74
2023/05/24 00:21:58;;;;;;;19.45;5.53;;;;;;;;;;4436664;32;20390;-72
2023/05/24 00:24:23;;;;;;;24.27;6.03;;;;;;;;;;4437666;32;20088;-72
2023/05/24 00:26:48;;;;;;;;;;;;;;;;;;4438343;32;20042;-72
2023/05/24 00:29:13;;;;;;;19.45;4.68;;;;;;;;;;4437039;32;19952;-72
2023/05/24 00:31:38;;;;;;;17.98;4.43;;;;;;;;;;4435322;32;20033;-72
2023/05/24 00:34:03;;;;;;;;;;;;;;;;;;4437391;32;20041;-72
2023/05/24 00:36:29;;;;;;;21.40;4.62;;;;;;;;;;4435370;32;19947;-72
2023/05/24 00:38:55;;;;;;;16.62;4.87;;;;;;;;;;4436772;32;20044;-72
2023/05/24 00:41:20;;;;;;;;;;;;;;;;;;4436211;32;20143;-72
2023/05/24 00:43:45;;;;;;;17.85;5.20;;;;;;;;;;4436222;32;19978;-72
2023/05/24 00:46:10;;;;;;;;;;;;;;;;;;4437272;32;20128;-72
2023/05/24 00:48:35;;;;;;;19.00;5.47;;;;;;;;;;4436532;32;19941;-72
2023/05/24 00:51:00;;;;;;;25.98;5.15;;;;;;;;;;4435914;32;20017;-72
2023/05/24 00:53:26;;;;;;;;;;;;;;;;;;4436621;32;20433;-72
2023/05/24 00:55:51;;;;;;;15.60;5.47;;;;;;;;;;4436305;32;19989;-71
2023/05/24 00:58:16;;;;;;;;;;;;;;;;;;4437269;32;20458;-72
2023/05/24 01:00:42;;;;;;;21.20;4.75;;;;;;;;;;4435235;32;19947;-72
2023/05/24 01:03:09;;;;;;;21.50;5.93;;;;;;;;;;4436818;32;20099;-72
2023/05/24 01:05:34;;;;;;;24.12;5.57;;;;;;;;;;4435761;32;20017;-72
2023/05/24 01:08:25;;;;;;;25.25;5.37;;;;;;;;;;4436301;32;20064;-72
2023/05/24 01:10:55;;;;;;;20.90;5.35;;;;;;;;;;4432443;32;20082;-72
2023/05/24 01:13:47;;;;;;;24.87;5.72;;;;;;;;;;4434833;32;20039;-72
2023/05/24 01:16:18;;;;;;;24.87;6.80;;;;;;;;;;4417570;32;20022;-73
2023/05/24 01:18:47;;;;;;;26.75;5.95;;;;;;;;;;4436228;32;20069;-73
2023/05/24 01:21:27;;;;;;;23.62;5.93;;;;;;;;;;4437039;32;20066;-72
2023/05/24 01:24:03;;;;;;;22.83;6.93;;;;;;;;;;4434993;32;20045;-71
2023/05/24 01:26:37;;;;;;;25.90;6.85;;;;;;;;;;4436803;32;20018;-72
2023/05/24 01:29:03;;;;;;;20.80;6.18;;;;;;;;;;4434636;32;20447;-72
2023/05/24 01:31:28;;;;;;;21.05;5.40;;;;;;;;;;4436911;32;20029;-72
2023/05/24 01:33:54;;;;;;;;;;;;;;;;;;4436864;32;20052;-72
2023/05/24 01:36:19;;;;;;;18.87;5.50;;;;;;;;;;4435268;32;19936;-72
2023/05/24 01:38:45;;;;;;;;;;;;;;;;;;4436104;32;20095;-72
2023/05/24 01:41:35;;;;;;;18.20;5.03;;;;;;;;;;4436019;32;19947;-73
2023/05/24 01:44:12;;;;;;;25.10;6.12;;;;;;;;;;4437687;32;20478;-72
2023/05/24 01:46:37;;;;;;;20.15;5.90;;;;;;;;;;4435885;32;20391;-73
2023/05/24 01:49:02;;;;;;;;;;;;;;;;;;4436345;32;20044;-73
2023/05/24 01:51:30;;;;;;;28.55;5.30;;;;;;;;;;4436012;32;19972;-73
2023/05/24 01:53:57;;;;;;;35.05;6.10;;;;;;;;;;4434128;32;20051;-72
2023/05/24 01:56:23;;;;;;;19.60;6.10;;;;;;;;;;4435692;32;20072;-73
2023/05/24 01:58:49;;;;;;;24.15;6.20;;;;;;;;;;4437068;32;20450;-72
2023/05/24 02:01:15;;;;;;;22.67;6.18;;;;;;;;;;4435119;32;20034;-72
2023/05/24 02:03:40;;;;;;;23.85;6.43;;;;;;;;;;4435911;32;20040;-73
2023/05/24 02:06:05;;;;;;;;;;;;;;;;;;4437421;32;20030;-73
2023/05/24 02:08:30;;;;;;;18.83;5.32;;;;;;;;;;4435247;32;19961;-73
2023/05/24 02:10:55;;;;;;;21.00;5.55;;;;;;;;;;4435710;32;20065;-73
2023/05/24 02:13:21;;;;;;;;;;;;;;;;;;4435412;32;20026;-73
2023/05/24 02:15:46;;;;;;;27.10;6.12;;;;;;;;;;4437249;32;19933;-73
2023/05/24 02:18:11;;;;;;;21.42;5.35;;;;;;;;;;4435795;32;20369;-72
2023/05/24 02:20:37;;;;;;;21.52;5.82;;;;;;;;;;4435192;32;20434;-73
2023/05/24 02:23:02;;;;;;;;;;;;;;;;;;4436791;32;20026;-73
2023/05/24 02:25:28;;;;;;;25.23;5.65;;;;;;;;;;4436901;32;19968;-73
2023/05/24 02:27:53;;;;;;;;;;;;;;;;;;4436688;32;20022;-73
2023/05/24 02:30:18;;;;;;;15.65;5.70;;;;;;;;;;4435951;32;19964;-72
2023/05/24 02:32:43;;;;;;;;;;;;;;;;;;4435160;32;20097;-72
2023/05/24 02:35:08;;;;;;;23.48;6.35;;;;;;;;;;4434339;32;20269;-72
2023/05/24 02:37:33;;;;;;;;;;;;;;;;;;4434406;32;20026;-73
2023/05/24 02:39:58;;;;;;;18.70;6.15;;;;;;;;;;4433792;32;19949;-72
2023/05/24 02:42:24;;;;;;;19.60;5.97;;;;;;;;;;4437681;32;20041;-72
2023/05/24 02:44:51;;;;;;;;;;;;;;;;;;4436443;32;20052;-72
2023/05/24 02:47:17;;;;;;;20.37;5.40;;;;;;;;;;4434886;32;19990;-72
2023/05/24 02:49:42;;;;;;;;;;;;;;;;;;4435981;32;20021;-72
2023/05/24 02:52:07;;;;;;;25.17;6.40;;;;;;;;;;4435630;32;19975;-72
2023/05/24 02:54:32;;;;;;;23.05;6.18;;;;;;;;;;4435282;32;20018;-72
2023/05/24 02:56:57;;;;;;;;;;;;;;;;;;4436736;32;20049;-72
2023/05/24 02:59:23;;;;;;;21.60;5.95;;;;;;;;;;4435487;32;19963;-71
2023/05/24 03:01:48;;;;;;;;;;;;;;;;;;4436370;32;20113;-72
2023/05/24 03:04:13;;;;;;;22.17;6.30;;;;;;;;;;4433345;32;20348;-72
2023/05/24 03:06:38;;;;;;;;;;;;;;;;;;4433568;32;20201;-72
2023/05/24 03:09:04;;;;;;;27.67;6.82;;;;;;;;;;4434663;32;19960;-72
2023/05/24 03:11:29;;;;;;;18.55;5.90;;;;;;;;;;4436777;32;20090;-72
2023/05/24 03:13:54;;;;;;;;;;;;;;;;;;4437974;32;20025;-72
2023/05/24 03:16:19;;;;;;;32.45;7.97;;;;;;;;;;4437146;32;19952;-72
2023/05/24 03:18:45;;;;;;;;;;;;;;;;;;4437707;32;20018;-72
2023/05/24 03:21:10;;;;;;;34.75;7.53;;;;;;;;;;4437271;32;20320;-72
2023/05/24 03:23:35;;;;;;;26.80;6.87;;;;;;;;;;4438051;32;20097;-72
2023/05/24 03:26:00;;;;;;;;;;;;;;;;;;4438016;32;20067;-72
2023/05/24 03:28:26;;;;;;;28.85;6.85;;;;;;;;;;4438445;32;19933;-71
2023/05/24 03:30:51;;;;;;;19.67;6.78;;;;;;;;;;4437905;32;20117;-72
2023/05/24 03:33:16;;;;;;;25.27;8.55;;;;;;;;;;4437976;32;20026;-72
2023/05/24 03:35:41;;;;;;;;;;;;;;;;;;4437668;32;20067;-73
2023/05/24 03:38:07;;;;;;;24.35;6.87;;;;;;;;;;4437962;32;19955;-73
2023/05/24 03:40:33;;;;;;;;;;;;;;;;;;4436498;32;20147;-73
2023/05/24 03:42:58;;;;;;;23.23;7.80;;;;;;;;;;4437167;32;19993;-73
2023/05/24 03:45:23;;;;;;;;;;;;;;;;;;4438255;32;20104;-73
2023/05/24 03:47:48;;;;;;;28.48;7.82;;;;;;;;;;4437531;32;20273;-73
2023/05/24 03:50:13;;;;;;;;;;;;;;;;;;4438961;32;20113;-72
2023/05/24 03:52:39;;;;;;;20.62;7.18;;;;;;;;;;4437586;32;19937;-73
2023/05/24 03:55:04;;;;;;;27.75;6.72;;;;;;;;;;4438588;32;20025;-73
2023/05/24 03:57:30;;;;;;;21.45;6.85;;;;;;;;;;4438141;32;20081;-72
2023/05/24 03:59:55;;;;;;;;;;;;;;;;;;4438659;32;20038;-73
2023/05/24 04:02:20;;;;;;;32.20;7.68;;;;;;;;;;4437814;32;19940;-73
2023/05/24 04:04:45;;;;;;;;;;;;;;;;;;4437468;32;20478;-72
2023/05/24 04:07:12;;;;;;;20.40;6.47;;;;;;;;;;4437527;32;19936;-72
2023/05/24 04:09:37;;;;;;;23.40;7.82;;;;;;;;;;4437149;32;20053;-72
2023/05/24 04:12:02;;;;;;;;;;;;;;;;;;4437548;32;20034;-72
2023/05/24 04:14:28;;;;;;;18.70;7.30;;;;;;;;;;4436349;32;20005;-72
2023/05/24 04:16:53;;;;;;;31.02;12.95;;;;;;;;;;4436710;32;20045;-73
2023/05/24 04:19:19;;;;;;;;;;;;;;;;;;4436101;32;20097;-73
2023/05/24 04:21:44;;;;;;;25.83;7.05;;;;;;;;;;4437353;32;19961;-72
2023/05/24 04:24:09;;;;;;;;;;;;;;;;;;4437264;32;20109;-73
2023/05/24 04:26:36;;;;;;;22.73;7.30;;;;;;;;;;4436373;32;19944;-73
2023/05/24 04:29:02;;;;;;;36.22;7.90;;;;;;;;;;4436643;32;20025;-73
2023/05/24 04:31:29;;;;;;;23.60;7.43;;;;;;;;;;4436517;32;20464;-72
2023/05/24 04:33:54;;;;;;;25.83;7.65;;;;;;;;;;4435265;32;20033;-72
2023/05/24 04:36:21;;;;;;;;;;;;;;;;;;4436874;32;20074;-73
2023/05/24 04:38:46;;;;;;;22.23;7.45;;;;;;;;;;4437759;32;20359;-73
2023/05/24 04:41:12;;;;;;;30.05;7.40;;;;;;;;;;4436944;32;20022;-73
2023/05/24 04:43:37;;;;;;;;;;;;;;;;;;4436847;32;20083;-73
2023/05/24 04:46:02;;;;;;;24.73;6.80;;;;;;;;;;4435379;32;20219;-73
2023/05/24 04:48:27;;;;;;;;;;;;;;;;;;4436309;32;20102;-72
2023/05/24 04:50:53;;;;;;;20.17;7.35;;;;;;;;;;4435290;32;19974;-73
2023/05/24 04:53:19;;;;;;;26.05;6.80;;;;;;;;;;4436883;32;20025;-73
2023/05/24 04:55:44;;;;;;;21.27;7.32;;;;;;;;;;4434973;32;20017;-72
2023/05/24 04:58:09;;;;;;;29.05;8.60;;;;;;;;;;4434826;32;20098;-72
2023/05/24 05:00:34;;;;;;;;;;;;;;;;;;4434950;32;20049;-73
2023/05/24 05:03:00;;;;;;;29.05;7.85;;;;;;;;;;4438032;32;19941;-73
2023/05/24 05:05:25;;;;;;;25.55;8.50;;;;;;;;;;4434821;32;20094;-72
2023/05/24 05:07:50;;;;;;;;;;;;;;;;;;4436318;32;20064;-71
2023/05/24 05:10:15;;;;;;;22.48;7.20;;;;;;;;;;4437603;32;19932;-71
2023/05/24 05:12:41;;;;;;;18.80;7.35;;;;;;;;;;4435960;32;20022;-72
2023/05/24 05:15:06;;;;;;;37.22;8.25;;;;;;;;;;4434713;32;20086;-72
2023/05/24 05:17:31;;;;;;;22.17;7.57;;;;;;;;;;4437095;32;20022;-72
2023/05/24 05:19:57;;;;;;;;;;;;;;;;;;4437021;32;20073;-71
2023/05/24 05:22:22;;;;;;;19.52;6.43;;;;;;;;;;4434722;32;19933;-72
2023/05/24 05:24:47;;;;;;;26.20;6.28;;;;;;;;;;4435140;32;20049;-72
2023/05/24 05:27:12;;;;;;;27.87;7.25;;;;;;;;;;4435709;32;20090;-72
2023/05/24 05:29:37;;;;;;;;;;;;;;;;;;4435271;32;20087;-71
2023/05/24 05:32:03;;;;;;;24.67;5.70;;;;;;;;;;4435021;32;19933;-72
2023/05/24 05:34:28;;;;;;;26.02;7.80;;;;;;;;;;4435105;32;20108;-72
2023/05/24 05:36:53;;;;;;;;;;;;;;;;;;4436684;32;20021;-71
2023/05/24 05:39:18;;;;;;;27.27;6.87;;;;;;;;;;4434522;32;20035;-73
2023/05/24 05:41:44;;;;;;;;;;;;;;;;;;4434690;32;20125;-72
2023/05/24 05:44:10;;;;;;;20.55;5.45;;;;;;;;;;4435628;32;19974;-73
2023/05/24 05:46:35;;;;;;;26.92;6.12;;;;;;;;;;4427035;32;20447;-72
2023/05/24 05:49:00;;;;;;;;;;;;;;;;;;4435118;32;20104;-72
2023/05/24 05:51:26;;;;;;;22.08;6.78;;;;;;;;;;4434917;32;19933;-71
2023/05/24 05:53:51;;;;;;;21.00;5.72;;;;;;;;;;4435241;32;20412;-72
2023/05/24 05:56:16;;;;;;;21.37;5.15;;;;;;;;;;4434646;32;20017;-72
2023/05/24 05:58:41;;;;;;;;;;;;;;;;;;4435522;32;20044;-71
2023/05/24 06:01:07;;;;;;;27.58;6.03;;;;;;;;;;4435708;32;19937;-73
2023/05/24 06:03:32;;;;;;;23.90;5.70;;;;;;;;;;4433999;32;20048;-72
2023/05/24 06:05:57;;;;;;;;;;;;;;;;;;4434080;32;20079;-71
2023/05/24 06:08:22;;;;;;;19.70;5.15;;;;;;;;;;4433674;32;19998;-71
2023/05/24 06:10:47;;;;;;;27.40;6.37;;;;;;;;;;4435724;32;20075;-72
2023/05/24 06:13:12;;;;;;;;;;;;;;;;;;4435887;32;20023;-72
2023/05/24 06:15:38;;;;;;;27.05;6.20;;;;;;;;;;4435331;32;19969;-73
2023/05/24 06:18:03;;;;;;;21.20;6.30;;;;;;;;;;4434196;32;20121;-72
2023/05/24 06:20:29;;;;;;;22.70;6.70;;;;;;;;;;4434725;32;20087;-72
2023/05/24 06:22:55;;;;;;;26.23;7.57;;;;;;;;;;4435754;32;20082;-72
2023/05/24 06:25:22;;;;;;;27.62;7.07;;;;;;;;;;4434291;32;20336;-73
2023/05/24 06:27:47;;;;;;;17.75;6.57;;;;;;;;;;4434569;32;20059;-73
2023/05/24 06:30:12;;;;;;;18.23;6.00;;;;;;;;;;4434555;32;20431;-72
2023/05/24 06:32:38;;;;;;;;;;;;;;;;;;4434996;32;20188;-72
2023/05/24 06:35:04;;;;;;;18.30;5.93;;;;;;;;;;4435465;32;20363;-72
2023/05/24 06:37:30;;;;;;;27.52;6.68;;;;;;;;;;4433752;32;20132;-72
2023/05/24 06:39:55;;;;;;;24.05;6.62;;;;;;;;;;4434856;32;20030;-73
2023/05/24 06:42:20;;;;;;;19.10;5.87;;;;;;;;;;4435277;32;20277;-72
2023/05/24 06:44:46;;;;;;;;;;;;;;;;;;4435770;32;20078;-73
2023/05/24 06:47:11;;;;;;;22.45;6.12;;;;;;;;;;4438226;32;19940;-72
2023/05/24 06:49:36;;;;;;;31.08;6.95;;;;;;;;;;4437732;32;20444;-72
2023/05/24 06:52:02;;;;;;;18.67;5.82;;;;;;;;;;4437612;32;20403;-72
2023/05/24 06:54:27;;;;;;;27.90;6.35;;;;;;;;;;4438516;32;20088;-72
2023/05/24 06:56:52;;;;;;;21.42;6.05;;;;;;;;;;4438598;32;20013;-71
2023/05/24 06:59:17;;;;;;;21.37;6.40;;;;;;;;;;4437793;32;20120;-72
2023/05/24 07:01:43;;;;;;;21.35;6.50;;;;;;;;;;4438614;32;20019;-73
2023/05/24 07:04:08;;;;;;;17.30;5.25;;;;;;;;;;4437737;32;20067;-72
2023/05/24 07:06:34;;;;;;;28.73;7.37;;;;;;;;;;4437488;32;20047;-72
2023/05/24 07:09:00;;;;;;;17.98;5.72;;;;;;;;;;4438888;32;20042;-71
2023/05/24 07:11:26;;;;;;;18.87;5.70;;;;;;;;;;4438048;32;20022;-71
2023/05/24 07:13:51;;;;;;;22.55;5.70;;;;;;;;;;4438116;32;20018;-72
2023/05/24 07:16:16;;;;;;;24.20;6.22;;;;;;;;;;4437795;32;20022;-72
2023/05/24 07:18:41;;;;;;;20.05;5.20;;;;;;;;;;4437458;32;20360;-72
2023/05/24 07:21:07;;;;;;;22.45;4.90;;;;;;;;;;4437935;32;20025;-72
2023/05/24 07:23:32;;;;;;;18.27;4.30;;;;;;;;;;4437933;32;20022;-72
2023/05/24 07:25:57;;;;;;;17.27;6.95;;;;;;;;;;4437146;32;20543;-72
2023/05/24 07:28:23;;;;;;;18.87;4.50;;;;;;;;;;4436277;32;20018;-72
2023/05/24 07:30:48;;;;;;;12.25;4.70;;;;;;;;;;4437120;32;20034;-72
2023/05/24 07:33:13;;;;;;;14.15;5.20;;;;;;;;;;4437496;32;20048;-71
2023/05/24 07:35:39;;;;;;;21.15;6.53;;;;;;;;;;4437007;32;20029;-72
2023/05/24 07:38:04;;;;;;;19.98;4.95;;;;;;;;;;4437530;32;20055;-73
2023/05/24 07:40:29;;;;;;;18.92;5.10;;;;;;;;;;4436280;32;20022;-73
2023/05/24 07:42:55;;;;;;;16.75;4.45;;;;;;;;;;4437189;32;20096;-73
2023/05/24 07:45:20;;;;;;;17.77;4.53;;;;;;;;;;4436958;32;20493;-72
2023/05/24 07:47:46;;;;;;;22.25;4.97;;;;;;;;;;4437391;32;20041;-72
2023/05/24 07:50:11;;;;;;;17.50;4.75;;;;;;;;;;4437215;32;20018;-73
2023/05/24 07:52:37;;;;;;;20.02;5.18;;;;;;;;;;4436704;32;20072;-72
2023/05/24 07:55:03;;;;;;;20.42;4.18;;;;;;;;;;4435297;32;20092;-72
2023/05/24 07:57:28;;;;;;;18.58;5.07;;;;;;;;;;4436327;32;20452;-72
2023/05/24 07:59:54;;;;;;;22.25;4.70;;;;;;;;;;4436366;32;20090;-72
2023/05/24 08:02:19;;;;;;;19.67;5.03;;;;;;;;;;4435528;32;20052;-72
2023/05/24 08:04:45;;;;;;;17.52;4.45;;;;;;;;;;4436424;32;20407;-72
2023/05/24 08:07:10;;;;;;;16.98;4.47;;;;;;;;;;4435454;32;20022;-72
2023/05/24 08:09:37;;;;;;;14.75;3.72;;;;;;;;;;4436906;32;20153;-72
2023/05/24 08:12:02;;;;;;;18.52;4.45;;;;;;;;;;4437638;32;20071;-72
2023/05/24 08:14:28;;;;;;;17.50;4.43;;;;;;;;;;4437322;32;20458;-72
2023/05/24 08:16:53;;;;;;;13.10;4.07;;;;;;;;;;4435381;32;20030;-72
2023/05/24 08:19:18;;;;;;;18.17;4.65;;;;;;;;;;4436830;32;20045;-71
2023/05/24 08:21:44;;;;;;;14.30;4.30;;;;;;;;;;4436876;32;20407;-73
2023/05/24 08:24:09;;;;;;;16.52;4.90;;;;;;;;;;4436585;32;20017;-72
2023/05/24 08:26:35;;;;;;;14.55;4.40;;;;;;;;;;4436337;32;20022;-72
2023/05/24 08:29:01;;;;;;;18.83;4.67;;;;;;;;;;4436801;32;20441;-72
2023/05/24 08:31:26;;;;;;;14.70;5.00;;;;;;;;;;4437303;32;20152;-72
2023/05/24 08:33:52;;;;;;;18.00;3.97;;;;;;;;;;4436260;32;20104;-73
2023/05/24 08:36:17;;;;;;;18.77;4.65;;;;;;;;;;4434990;32;20113;-72
2023/05/24 08:38:43;;;;;;;18.00;5.40;;;;;;;;;;4435381;32;20056;-72
2023/05/24 08:41:09;;;;;;;20.20;4.90;;;;;;;;;;4437095;32;20045;-73
2023/05/24 08:43:35;;;;;;;15.30;3.30;;;;;;;;;;4436239;32;20025;-72
2023/05/24 08:46:00;;;;;;;10.10;4.20;;;;;;;;;;4436231;32;20025;-72
2023/05/24 08:48:27;;;;;;;17.98;4.70;;;;;;;;;;4437122;32;20415;-73
2023/05/24 08:50:52;;;;;;;15.82;5.12;;;;;;;;;;4435656;32;20022;-73
2023/05/24 08:53:17;;;;;;;14.52;5.30;;;;;;;;;;4436339;32;20083;-73
2023/05/24 08:55:43;;;;;;;13.40;4.00;;;;;;;;;;4436980;32;20048;-74
2023/05/24 08:58:09;;;;;;;21.62;5.53;;;;;;;;;;4435072;32;20075;-73
2023/05/24 09:00:35;;;;;;;19.45;4.80;;;;;;;;;;4436512;32;20063;-73
2023/05/24 09:03:00;;;;;;;18.42;5.15;;;;;;;;;;4436388;32;20327;-72
2023/05/24 09:05:26;;;;;;;20.23;5.68;;;;;;;;;;4435774;32;20030;-72
2023/05/24 09:07:51;;;;;;;20.52;4.97;;;;;;;;;;4435455;32;20082;-72
2023/05/24 09:10:18;;;;;;;18.70;5.90;;;;;;;;;;4435855;32;20025;-72
2023/05/24 09:12:44;;;;;;;18.90;5.20;;;;;;;;;;4435743;32;20108;-73
2023/05/24 09:15:10;;;;;;;36.63;5.75;;;;;;;;;;4435627;32;20060;-73
2023/05/24 09:17:36;;;;;;;21.80;5.07;;;;;;;;;;4435887;32;20312;-72
2023/05/24 09:20:05;;;;;;;16.67;5.07;;;;;;;;;;4436783;32;20141;-72
2023/05/24 09:22:32;;;;;;;17.02;4.07;;;;;;;;;;4436611;32;20182;-72
2023/05/24 09:25:01;;;;;;;17.20;5.30;;;;;;;;;;4435757;32;20018;-73
2023/05/24 09:27:26;;;;;;;15.77;5.15;;;;;;;;;;4436162;32;20105;-72
2023/05/24 09:29:52;;;;;;;16.67;4.32;;;;;;;;;;4436295;32;20037;-73
2023/05/24 09:32:18;;;;;;;15.95;4.55;;;;;;;;;;4436105;32;20072;-73
2023/05/24 09:34:46;;;;;;;17.80;3.85;;;;;;;;;;4435306;32;20017;-71
2023/05/24 09:37:15;;;;;;;15.43;4.50;;;;;;;;;;4435631;32;20060;-72
2023/05/24 09:39:43;;;;;;;11.73;4.65;;;;;;;;;;4436033;32;20101;-72
2023/05/24 09:42:13;;;;;;;21.62;4.80;;;;;;;;;;4434602;32;20091;-72
2023/05/24 09:44:39;;;;;;;17.27;4.47;;;;;;;;;;4435873;32;20061;-72
2023/05/24 09:47:04;;;;;;;13.38;4.60;;;;;;;;;;4435496;32;20084;-72
2023/05/24 09:49:29;;;;;;;16.15;4.32;;;;;;;;;;4436173;32;20018;-73
2023/05/24 09:51:55;;;;;;;15.27;4.15;;;;;;;;;;4435585;32;20460;-73
2023/05/24 09:54:20;;;;;;;13.50;4.18;;;;;;;;;;4435266;32;20018;-73
2023/05/24 09:56:46;;;;;;;14.50;5.50;;;;;;;;;;4433971;32;20074;-73
2023/05/24 09:59:11;;;;;;;17.80;6.05;;;;;;;;;;4435334;32;20018;-73
2023/05/24 10:01:36;;;;;;;19.20;4.80;;;;;;;;;;4435277;32;20013;-73
2023/05/24 10:04:01;;;;;;;16.08;4.95;;;;;;;;;;4435339;32;20442;-72
2023/05/24 10:06:31;;;;;;;17.48;5.47;;;;;;;;;;4434544;32;20026;-73
2023/05/24 10:08:57;;;;;;;12.68;4.20;;;;;;;;;;4420290;32;20490;-73
2023/05/24 10:11:23;;;;;;;13.20;4.35;;;;;;;;;;4418439;32;20018;-73
2023/05/24 10:13:48;;;;;;;15.13;4.35;;;;;;;;;;4426579;32;20061;-73
2023/05/24 10:16:14;;;;;;;10.68;4.00;;;;;;;;;;4436303;32;20014;-74
2023/05/24 10:18:39;;;;;;;14.43;4.35;;;;;;;;;;4434217;32;20030;-70
2023/05/24 10:21:08;;;;;;;15.75;4.45;;;;;;;;;;4435069;32;20363;-71
2023/05/24 10:23:35;;;;;;;12.00;4.65;;;;;;;;;;4436120;32;20056;-72
2023/05/24 10:26:08;;;;;;;17.50;5.15;;;;;;;;;;4435505;32;20025;-72
2023/05/24 10:28:35;;;;;;;15.82;4.93;;;;;;;;;;4433773;32;20022;-72
2023/05/24 10:31:10;;;;;;;14.35;4.70;;;;;;;;;;4434488;32;20161;-71
2023/05/24 10:33:36;;;;;;;22.77;5.28;;;;;;;;;;4435280;32;20060;-71
2023/05/24 10:36:05;;;;;;;11.80;4.40;;;;;;;;;;4433869;32;20419;-72
2023/05/24 10:38:31;;;;;;;21.87;4.50;;;;;;;;;;4435192;32;20063;-73
2023/05/24 10:40:56;;;;;;;10.88;4.20;;;;;;;;;;4435069;32;20097;-72
2023/05/24 10:43:21;;;;;;;17.70;4.35;;;;;;;;;;4435584;32;20354;-73
2023/05/24 10:45:47;;;;;;;17.15;5.78;;;;;;;;;;4435147;32;20091;-73
2023/05/24 10:48:12;;;;;;;15.63;4.68;;;;;;;;;;4434706;32;20030;-73
2023/05/24 10:50:38;;;;;;;14.90;4.63;;;;;;;;;;4434513;32;20087;-73
2023/05/24 10:53:13;;;;;;;13.02;5.07;;;;;;;;;;4433157;32;20556;-73
2023/05/24 10:55:54;;;;;;;16.25;4.95;;;;;;;;;;4434897;32;20151;-73
2023/05/24 10:58:22;;;;;;;16.92;5.05;;;;;;;;;;4432409;32;20034;-73
2023/05/24 11:00:50;;;;;;;11.50;4.22;;;;;;;;;;4434057;32;20094;-72
2023/05/24 11:03:22;;;;;;;16.23;5.37;;;;;;;;;;4435040;32;20017;-73
2023/05/24 11:05:51;;;;;;;12.25;5.25;;;;;;;;;;4433733;32;20071;-72
2023/05/24 11:08:28;;;;;;;17.00;4.65;;;;;;;;;;4433335;32;20056;-72
2023/05/24 11:11:11;;;;;;;20.85;6.07;;;;;;;;;;4433530;32;20026;-72
2023/05/24 11:13:37;;;;;;;15.27;4.45;;;;;;;;;;4434854;32;20068;-73
2023/05/24 11:16:02;;;;;;;15.60;4.37;;;;;;;;;;4434818;32;20026;-73
2023/05/24 11:18:27;;;;;;;16.25;4.32;;;;;;;;;;4434910;32;20081;-73
2023/05/24 11:20:53;;;;;;;15.02;4.93;;;;;;;;;;4435428;32;20038;-73
2023/05/24 11:23:18;;;;;;;14.10;4.95;;;;;;;;;;4434693;32;20053;-73
2023/05/24 11:25:47;;;;;;;11.75;4.82;;;;;;;;;;4434554;32;20354;-73
2023/05/24 11:28:15;;;;;;;12.68;5.07;;;;;;;;;;4435884;32;20085;-72
2023/05/24 11:30:41;;;;;;;18.42;4.45;;;;;;;;;;4434280;32;20292;-72
2023/05/24 11:33:17;;;;;;;14.25;4.82;;;;;;;;;;4437895;32;20021;-71
2023/05/24 11:35:43;;;;;;;15.07;4.72;;;;;;;;;;4436611;32;20022;-72
2023/05/24 11:38:09;;;;;;;12.65;4.07;;;;;;;;;;4437485;32;20414;-72
2023/05/24 11:40:34;;;;;;;14.27;4.18;;;;;;;;;;4437178;32;20029;-71
2023/05/24 11:42:59;;;;;;;15.63;4.53;;;;;;;;;;4438692;32;20044;-71
2023/05/24 11:45:25;;;;;;;11.05;4.37;;;;;;;;;;4436770;32;20018;-71
2023/05/24 11:47:50;;;;;;;13.90;4.95;;;;;;;;;;4437395;32;20049;-70
2023/05/24 11:50:22;;;;;;;15.38;4.72;;;;;;;;;;4437235;32;20396;-71
2023/05/24 11:52:47;;;;;;;15.13;4.82;;;;;;;;;;4437016;32;20096;-71
2023/05/24 11:55:13;;;;;;;11.70;4.60;;;;;;;;;;4437085;32;20040;-71
2023/05/24 11:57:40;;;;;;;12.50;4.62;;;;;;;;;;4435800;32;20153;-72
2023/05/24 12:00:10;;;;;;;11.98;4.70;;;;;;;;;;4436581;32;20114;-71
2023/05/24 12:02:35;;;;;;;13.48;5.22;;;;;;;;;;4435521;32;20074;-72
2023/05/24 12:05:09;;;;;;;15.63;4.55;;;;;;;;;;4437534;32;20029;-71
2023/05/24 12:07:35;;;;;;;12.88;4.10;;;;;;;;;;4436893;32;20090;-72
2023/05/24 12:10:00;;;;;;;18.15;5.18;;;;;;;;;;4437314;32;20062;-72
2023/05/24 12:12:26;;;;;;;25.12;5.05;;;;;;;;;;4437152;32;20033;-71
2023/05/24 12:14:54;;;;;;;18.12;5.22;;;;;;;;;;4437073;32;20017;-70
2023/05/24 12:17:19;;;;;;;15.57;4.80;;;;;;;;;;4436608;32;20053;-71
2023/05/24 12:19:47;;;;;;;14.30;4.80;;;;;;;;;;4436600;32;20048;-71
2023/05/24 12:22:12;;;;;;;21.75;5.12;;;;;;;;;;4435252;32;20375;-69
2023/05/24 12:24:37;;;;;;;24.08;5.05;;;;;;;;;;4435828;32;20109;-71
2023/05/24 12:27:06;;;;;;;16.58;4.75;;;;;;;;;;4436782;32;20021;-72
2023/05/24 12:29:32;;;;;;;15.27;5.65;;;;;;;;;;4435983;32;20131;-72
2023/05/24 12:31:58;;;;;;;21.33;4.97;;;;;;;;;;4438359;32;20026;-72
2023/05/24 12:34:23;;;;;;;12.90;4.07;;;;;;;;;;4437891;32;20064;-72
2023/05/24 12:36:48;;;;;;;13.93;5.30;;;;;;;;;;4436310;32;20098;-73
2023/05/24 12:39:21;;;;;;;14.63;4.78;;;;;;;;;;4436129;32;20036;-71
2023/05/24 12:41:50;;;;;;;19.52;5.35;;;;;;;;;;4436296;32;20018;-72
2023/05/24 12:44:15;;;;;;;16.52;5.32;;;;;;;;;;4436721;32;20052;-71
2023/05/24 12:46:40;;;;;;;16.23;4.45;;;;;;;;;;4436582;32;20033;-71
2023/05/24 12:49:06;;;;;;;20.58;5.35;;;;;;;;;;4435705;32;20089;-73
2023/05/24 12:51:31;;;;;;;20.60;4.75;;;;;;;;;;4436007;32;20056;-71
2023/05/24 12:53:56;;;;;;;16.10;4.25;;;;;;;;;;4435605;32;20409;-72
2023/05/24 12:56:23;;;;;;;28.60;5.57;;;;;;;;;;4436398;32;20089;-72
2023/05/24 12:58:49;;;;;;;30.10;5.47;;;;;;;;;;4435774;32;20061;-73
2023/05/24 13:01:14;;;;;;;19.60;5.20;;;;;;;;;;4434978;32;20058;-71
2023/05/24 13:03:39;;;;;;;27.17;5.83;;;;;;;;;;4434427;32;20423;-72
2023/05/24 13:06:05;;;;;;;14.32;5.12;;;;;;;;;;4435873;32;20191;-72
2023/05/24 13:08:30;;;;;;;14.18;4.87;;;;;;;;;;4436668;32;20053;-72
2023/05/24 13:10:55;;;;;;;16.62;4.43;;;;;;;;;;4434538;32;20391;-71
2023/05/24 13:13:23;;;;;;;15.13;5.50;;;;;;;;;;4436249;32;20048;-71
2023/05/24 13:15:48;;;;;;;15.48;5.18;;;;;;;;;;4436134;32;20065;-71
2023/05/24 13:18:13;;;;;;;17.65;5.18;;;;;;;;;;4436128;32;20083;-71
2023/05/24 13:20:39;;;;;;;14.35;5.35;;;;;;;;;;4435350;32;20465;-72
2023/05/24 13:23:04;;;;;;;14.65;5.20;;;;;;;;;;4435817;32;20467;-70
2023/05/24 13:25:30;;;;;;;14.32;5.87;;;;;;;;;;4435344;32;20089;-70
2023/05/24 13:27:55;;;;;;;16.23;5.60;;;;;;;;;;4435898;32;20040;-71
2023/05/24 13:30:26;;;;;;;19.98;5.65;;;;;;;;;;4436522;32;20069;-71
2023/05/24 13:32:51;;;;;;;19.80;5.30;;;;;;;;;;4426561;32;20057;-72
2023/05/24 13:35:17;;;;;;;16.02;5.55;;;;;;;;;;4419883;32;20056;-72
2023/05/24 13:37:42;;;;;;;16.52;4.80;;;;;;;;;;4424015;32;20022;-72
2023/05/24 13:40:07;;;;;;;15.85;4.82;;;;;;;;;;4434710;32;20026;-72
2023/05/24 13:42:33;;;;;;;14.48;5.18;;;;;;;;;;4434679;32;20022;-72
2023/05/24 13:44:58;;;;;;;14.75;4.93;;;;;;;;;;4435180;32;20446;-72
2023/05/24 13:47:24;;;;;;;14.13;4.37;;;;;;;;;;4435411;32;20022;-71
2023/05/24 13:49:49;;;;;;;15.68;5.25;;;;;;;;;;4436296;32;20040;-72
2023/05/24 13:52:15;;;;;;;15.85;4.82;;;;;;;;;;4435260;32;20300;-72
2023/05/24 13:54:40;;;;;;;16.90;4.93;;;;;;;;;;4434807;32;20376;-72
2023/05/24 13:57:05;;;;;;;15.52;4.45;;;;;;;;;;4435347;32;20040;-71
2023/05/24 13:59:31;;;;;;;22.83;5.20;;;;;;;;;;4433716;32;20075;-71
2023/05/24 14:01:56;;;;;;;16.27;5.57;;;;;;;;;;4434776;32;20017;-71
2023/05/24 14:04:21;;;;;;;19.85;4.80;;;;;;;;;;4435392;32;20390;-72
2023/05/24 14:06:46;;;;;;;19.85;5.40;;;;;;;;;;4433837;32;20415;-72
2023/05/24 14:09:12;;;;;;;23.80;6.07;;;;;;;;;;4420773;32;20052;-72
2023/05/24 14:11:37;;;;;;;16.27;4.72;;;;;;;;;;4418457;32;20029;-71
2023/05/24 14:14:02;;;;;;;13.62;5.05;;;;;;;;;;4418597;32;20022;-72
2023/05/24 14:16:28;;;;;;;15.30;4.72;;;;;;;;;;4418503;32;20034;-72
2023/05/24 14:18:53;;;;;;;20.02;5.65;;;;;;;;;;4423011;32;20022;-73
2023/05/24 14:21:20;;;;;;;17.55;5.65;;;;;;;;;;4435335;32;20057;-72
2023/05/24 14:23:45;;;;;;;16.58;5.03;;;;;;;;;;4433561;32;20468;-73
2023/05/24 14:26:10;;;;;;;18.30;4.95;;;;;;;;;;4435332;32;20018;-72
2023/05/24 14:28:36;;;;;;;13.52;4.82;;;;;;;;;;4435993;32;20087;-71
2023/05/24 14:31:01;;;;;;;17.80;5.53;;;;;;;;;;4435438;32;20120;-71
2023/05/24 14:33:26;;;;;;;18.85;10.10;;;;;;;;;;4435453;32;20120;-70
2023/05/24 14:35:52;;;;;;;12.25;4.50;;;;;;;;;;4435615;32;20037;-71
2023/05/24 14:38:17;;;;;;;14.77;5.05;;;;;;;;;;4435511;32;20022;-70